sensor_id;sensor_type;location;lat;lon;timestamp;P1;durP1;ratioP1;P2;durP2;ratioP2
39860;SDS011;25529;49.346;20.886;2023-06-26T00:00:22;25.45;;;10.82;;
39860;SDS011;25529;49.346;20.886;2023-06-26T00:02:47;23.25;;;10.77;;
39860;SDS011;25529;49.346;20.886;2023-06-26T00:05:12;23.55;;;10.70;;
39860;SDS011;25529;49.346;20.886;2023-06-26T00:07:38;24.10;;;11.07;;
39860;SDS011;25529;49.346;20.886;2023-06-26T00:10:04;24.65;;;11.10;;
39860;SDS011;25529;49.346;20.886;2023-06-26T00:12:30;25.65;;;12.32;;
39860;SDS011;25529;49.346;20.886;2023-06-26T00:14:55;25.65;;;10.82;;
39860;SDS011;25529;49.346;20.886;2023-06-26T00:17:21;24.10;;;11.15;;
39860;SDS011;25529;49.346;20.886;2023-06-26T00:19:46;24.90;;;11.30;;
39860;SDS011;25529;49.346;20.886;2023-06-26T00:22:11;23.42;;;10.63;;
39860;SDS011;25529;49.346;20.886;2023-06-26T00:33:46;23.23;;;10.40;;
39860;SDS011;25529;49.346;20.886;2023-06-26T00:36:12;26.48;;;11.98;;
39860;SDS011;25529;49.346;20.886;2023-06-26T00:41:40;24.70;;;11.38;;
39860;SDS011;25529;49.346;20.886;2023-06-26T00:47:25;24.00;;;11.38;;
39860;SDS011;25529;49.346;20.886;2023-06-26T00:49:52;22.65;;;10.70;;
39860;SDS011;25529;49.346;20.886;2023-06-26T00:52:17;23.30;;;11.38;;
39860;SDS011;25529;49.346;20.886;2023-06-26T00:54:43;24.52;;;11.52;;
39860;SDS011;25529;49.346;20.886;2023-06-26T00:57:09;25.15;;;10.93;;
39860;SDS011;25529;49.346;20.886;2023-06-26T00:59:35;24.13;;;10.63;;
39860;SDS011;25529;49.346;20.886;2023-06-26T01:02:00;24.67;;;11.82;;
39860;SDS011;25529;49.346;20.886;2023-06-26T01:04:26;24.92;;;11.20;;
39860;SDS011;25529;49.346;20.886;2023-06-26T01:06:52;23.98;;;10.43;;
39860;SDS011;25529;49.346;20.886;2023-06-26T01:09:23;28.52;;;12.35;;
39860;SDS011;25529;49.346;20.886;2023-06-26T01:11:48;25.27;;;10.85;;
39860;SDS011;25529;49.346;20.886;2023-06-26T01:14:14;24.50;;;11.10;;
39860;SDS011;25529;49.346;20.886;2023-06-26T01:16:39;24.15;;;11.02;;
39860;SDS011;25529;49.346;20.886;2023-06-26T01:19:08;25.90;;;11.48;;
39860;SDS011;25529;49.346;20.886;2023-06-26T01:21:35;25.08;;;11.20;;
39860;SDS011;25529;49.346;20.886;2023-06-26T01:24:16;25.38;;;10.18;;
39860;SDS011;25529;49.346;20.886;2023-06-26T01:29:56;23.60;;;11.02;;
39860;SDS011;25529;49.346;20.886;2023-06-26T01:35:26;24.08;;;10.82;;
39860;SDS011;25529;49.346;20.886;2023-06-26T01:40:55;22.20;;;10.52;;
39860;SDS011;25529;49.346;20.886;2023-06-26T01:43:33;25.05;;;10.25;;
39860;SDS011;25529;49.346;20.886;2023-06-26T01:46:06;23.40;;;10.68;;
39860;SDS011;25529;49.346;20.886;2023-06-26T01:51:38;24.40;;;10.32;;
39860;SDS011;25529;49.346;20.886;2023-06-26T01:54:07;22.55;;;10.82;;
39860;SDS011;25529;49.346;20.886;2023-06-26T01:56:33;24.08;;;11.75;;
39860;SDS011;25529;49.346;20.886;2023-06-26T01:58:59;28.35;;;12.57;;
39860;SDS011;25529;49.346;20.886;2023-06-26T02:01:25;26.58;;;12.10;;
39860;SDS011;25529;49.346;20.886;2023-06-26T02:03:50;25.15;;;11.82;;
39860;SDS011;25529;49.346;20.886;2023-06-26T02:06:15;25.75;;;12.32;;
39860;SDS011;25529;49.346;20.886;2023-06-26T02:08:41;27.30;;;12.10;;
39860;SDS011;25529;49.346;20.886;2023-06-26T02:11:06;24.48;;;11.57;;
39860;SDS011;25529;49.346;20.886;2023-06-26T02:13:37;25.60;;;12.23;;
39860;SDS011;25529;49.346;20.886;2023-06-26T02:16:03;24.88;;;12.68;;
39860;SDS011;25529;49.346;20.886;2023-06-26T02:18:28;25.35;;;12.25;;
39860;SDS011;25529;49.346;20.886;2023-06-26T02:20:53;25.33;;;12.35;;
39860;SDS011;25529;49.346;20.886;2023-06-26T02:23:19;26.02;;;12.88;;
39860;SDS011;25529;49.346;20.886;2023-06-26T02:25:44;26.20;;;12.48;;
39860;SDS011;25529;49.346;20.886;2023-06-26T02:28:09;26.50;;;12.15;;
39860;SDS011;25529;49.346;20.886;2023-06-26T02:30:35;27.65;;;12.80;;
39860;SDS011;25529;49.346;20.886;2023-06-26T02:33:00;25.88;;;11.98;;
39860;SDS011;25529;49.346;20.886;2023-06-26T02:35:25;26.33;;;11.82;;
39860;SDS011;25529;49.346;20.886;2023-06-26T02:37:51;25.02;;;12.52;;
39860;SDS011;25529;49.346;20.886;2023-06-26T02:40:16;27.17;;;12.77;;
39860;SDS011;25529;49.346;20.886;2023-06-26T02:42:41;29.63;;;13.27;;
39860;SDS011;25529;49.346;20.886;2023-06-26T02:45:07;26.92;;;12.70;;
39860;SDS011;25529;49.346;20.886;2023-06-26T02:47:32;25.55;;;11.90;;
39860;SDS011;25529;49.346;20.886;2023-06-26T02:50:07;24.42;;;12.27;;
39860;SDS011;25529;49.346;20.886;2023-06-26T02:52:32;30.02;;;12.80;;
39860;SDS011;25529;49.346;20.886;2023-06-26T02:54:57;24.88;;;12.18;;
39860;SDS011;25529;49.346;20.886;2023-06-26T02:57:23;26.77;;;12.00;;
39860;SDS011;25529;49.346;20.886;2023-06-26T02:59:48;26.05;;;12.30;;
39860;SDS011;25529;49.346;20.886;2023-06-26T03:02:13;26.52;;;12.45;;
39860;SDS011;25529;49.346;20.886;2023-06-26T03:04:39;25.23;;;12.25;;
39860;SDS011;25529;49.346;20.886;2023-06-26T03:07:04;25.25;;;12.00;;
39860;SDS011;25529;49.346;20.886;2023-06-26T03:09:29;24.23;;;11.60;;
39860;SDS011;25529;49.346;20.886;2023-06-26T03:11:57;24.25;;;11.85;;
39860;SDS011;25529;49.346;20.886;2023-06-26T03:17:26;25.55;;;11.95;;
39860;SDS011;25529;49.346;20.886;2023-06-26T03:19:52;25.20;;;11.68;;
39860;SDS011;25529;49.346;20.886;2023-06-26T03:22:17;27.20;;;12.60;;
39860;SDS011;25529;49.346;20.886;2023-06-26T03:27:45;27.30;;;13.02;;
39860;SDS011;25529;49.346;20.886;2023-06-26T03:30:11;37.60;;;13.38;;
39860;SDS011;25529;49.346;20.886;2023-06-26T03:32:36;29.70;;;12.55;;
39860;SDS011;25529;49.346;20.886;2023-06-26T03:35:01;29.38;;;12.60;;
39860;SDS011;25529;49.346;20.886;2023-06-26T03:37:28;29.73;;;13.90;;
39860;SDS011;25529;49.346;20.886;2023-06-26T03:39:53;26.17;;;12.32;;
39860;SDS011;25529;49.346;20.886;2023-06-26T03:42:19;25.48;;;13.02;;
39860;SDS011;25529;49.346;20.886;2023-06-26T03:44:44;26.77;;;12.48;;
39860;SDS011;25529;49.346;20.886;2023-06-26T03:47:09;24.15;;;11.93;;
39860;SDS011;25529;49.346;20.886;2023-06-26T03:49:35;27.17;;;12.75;;
39860;SDS011;25529;49.346;20.886;2023-06-26T03:52:00;26.45;;;12.50;;
39860;SDS011;25529;49.346;20.886;2023-06-26T03:54:26;26.45;;;12.32;;
39860;SDS011;25529;49.346;20.886;2023-06-26T03:56:51;28.60;;;13.93;;
39860;SDS011;25529;49.346;20.886;2023-06-26T03:59:16;26.92;;;12.35;;
39860;SDS011;25529;49.346;20.886;2023-06-26T04:01:42;29.17;;;12.35;;
39860;SDS011;25529;49.346;20.886;2023-06-26T04:04:07;26.73;;;12.23;;
39860;SDS011;25529;49.346;20.886;2023-06-26T04:06:32;30.50;;;13.40;;
39860;SDS011;25529;49.346;20.886;2023-06-26T04:08:58;28.33;;;14.88;;
39860;SDS011;25529;49.346;20.886;2023-06-26T04:11:24;43.97;;;19.48;;
39860;SDS011;25529;49.346;20.886;2023-06-26T04:13:50;28.33;;;14.07;;
39860;SDS011;25529;49.346;20.886;2023-06-26T04:16:15;28.70;;;13.02;;
39860;SDS011;25529;49.346;20.886;2023-06-26T04:18:40;25.23;;;12.98;;
39860;SDS011;25529;49.346;20.886;2023-06-26T04:21:10;35.47;;;19.92;;
39860;SDS011;25529;49.346;20.886;2023-06-26T04:23:36;40.75;;;28.50;;
39860;SDS011;25529;49.346;20.886;2023-06-26T04:26:02;30.05;;;16.33;;
39860;SDS011;25529;49.346;20.886;2023-06-26T04:28:29;52.17;;;33.58;;
39860;SDS011;25529;49.346;20.886;2023-06-26T04:30:55;58.05;;;35.33;;
39860;SDS011;25529;49.346;20.886;2023-06-26T04:33:24;36.80;;;23.35;;
39860;SDS011;25529;49.346;20.886;2023-06-26T04:35:55;29.35;;;16.23;;
39860;SDS011;25529;49.346;20.886;2023-06-26T04:38:29;28.65;;;15.00;;
39860;SDS011;25529;49.346;20.886;2023-06-26T04:44:00;26.63;;;13.13;;
39860;SDS011;25529;49.346;20.886;2023-06-26T04:49:28;38.40;;;23.75;;
39860;SDS011;25529;49.346;20.886;2023-06-26T05:00:54;28.42;;;14.05;;
39860;SDS011;25529;49.346;20.886;2023-06-26T05:03:20;26.13;;;12.98;;
39860;SDS011;25529;49.346;20.886;2023-06-26T05:05:48;27.48;;;13.75;;
39860;SDS011;25529;49.346;20.886;2023-06-26T05:08:17;29.08;;;13.45;;
39860;SDS011;25529;49.346;20.886;2023-06-26T05:10:46;26.92;;;14.02;;
39860;SDS011;25529;49.346;20.886;2023-06-26T05:13:11;27.30;;;12.90;;
39860;SDS011;25529;49.346;20.886;2023-06-26T05:15:39;26.45;;;12.82;;
39860;SDS011;25529;49.346;20.886;2023-06-26T05:18:05;26.48;;;12.45;;
39860;SDS011;25529;49.346;20.886;2023-06-26T05:20:31;26.15;;;12.35;;
39860;SDS011;25529;49.346;20.886;2023-06-26T05:22:56;28.88;;;12.88;;
39860;SDS011;25529;49.346;20.886;2023-06-26T05:28:43;28.13;;;13.10;;
39860;SDS011;25529;49.346;20.886;2023-06-26T05:34:25;28.30;;;12.48;;
39860;SDS011;25529;49.346;20.886;2023-06-26T05:36:53;25.58;;;11.80;;
39860;SDS011;25529;49.346;20.886;2023-06-26T05:39:20;26.27;;;13.27;;
39860;SDS011;25529;49.346;20.886;2023-06-26T05:41:55;27.55;;;14.75;;
39860;SDS011;25529;49.346;20.886;2023-06-26T05:44:24;26.38;;;12.88;;
39860;SDS011;25529;49.346;20.886;2023-06-26T05:46:49;24.58;;;12.65;;
39860;SDS011;25529;49.346;20.886;2023-06-26T05:49:15;24.33;;;11.35;;
39860;SDS011;25529;49.346;20.886;2023-06-26T05:51:40;24.27;;;12.05;;
39860;SDS011;25529;49.346;20.886;2023-06-26T06:03:04;30.27;;;16.50;;
39860;SDS011;25529;49.346;20.886;2023-06-26T06:05:29;27.55;;;14.25;;
39860;SDS011;25529;49.346;20.886;2023-06-26T06:07:55;26.77;;;13.68;;
39860;SDS011;25529;49.346;20.886;2023-06-26T06:10:20;25.73;;;13.35;;
39860;SDS011;25529;49.346;20.886;2023-06-26T06:12:45;26.85;;;13.23;;
39860;SDS011;25529;49.346;20.886;2023-06-26T06:15:11;25.77;;;13.05;;
39860;SDS011;25529;49.346;20.886;2023-06-26T06:17:36;23.98;;;12.35;;
39860;SDS011;25529;49.346;20.886;2023-06-26T06:20:02;27.08;;;14.07;;
39860;SDS011;25529;49.346;20.886;2023-06-26T06:22:28;34.88;;;19.63;;
39860;SDS011;25529;49.346;20.886;2023-06-26T06:24:53;31.50;;;18.17;;
39860;SDS011;25529;49.346;20.886;2023-06-26T06:27:18;31.02;;;17.20;;
39860;SDS011;25529;49.346;20.886;2023-06-26T06:29:43;25.70;;;13.32;;
39860;SDS011;25529;49.346;20.886;2023-06-26T06:32:09;29.42;;;13.15;;
39860;SDS011;25529;49.346;20.886;2023-06-26T06:34:34;36.17;;;21.02;;
39860;SDS011;25529;49.346;20.886;2023-06-26T06:37:02;32.90;;;18.20;;
39860;SDS011;25529;49.346;20.886;2023-06-26T06:39:30;27.55;;;14.70;;
39860;SDS011;25529;49.346;20.886;2023-06-26T06:41:56;26.17;;;13.43;;
39860;SDS011;25529;49.346;20.886;2023-06-26T06:44:33;36.58;;;19.80;;
39860;SDS011;25529;49.346;20.886;2023-06-26T06:50:21;34.15;;;18.98;;
39860;SDS011;25529;49.346;20.886;2023-06-26T06:55:50;26.65;;;13.85;;
39860;SDS011;25529;49.346;20.886;2023-06-26T06:58:15;25.33;;;12.30;;
39860;SDS011;25529;49.346;20.886;2023-06-26T07:00:47;26.13;;;11.93;;
39860;SDS011;25529;49.346;20.886;2023-06-26T07:03:13;25.25;;;11.90;;
39860;SDS011;25529;49.346;20.886;2023-06-26T07:05:38;24.70;;;10.70;;
39860;SDS011;25529;49.346;20.886;2023-06-26T07:08:03;22.13;;;10.25;;
39860;SDS011;25529;49.346;20.886;2023-06-26T07:10:29;23.73;;;10.65;;
39860;SDS011;25529;49.346;20.886;2023-06-26T07:12:54;23.58;;;10.98;;
39860;SDS011;25529;49.346;20.886;2023-06-26T07:15:31;22.45;;;9.60;;
39860;SDS011;25529;49.346;20.886;2023-06-26T07:17:56;22.83;;;9.95;;
39860;SDS011;25529;49.346;20.886;2023-06-26T07:20:31;23.05;;;9.70;;
39860;SDS011;25529;49.346;20.886;2023-06-26T07:22:56;20.88;;;9.57;;
39860;SDS011;25529;49.346;20.886;2023-06-26T07:25:22;31.73;;;16.75;;
39860;SDS011;25529;49.346;20.886;2023-06-26T07:27:47;28.40;;;12.90;;
39860;SDS011;25529;49.346;20.886;2023-06-26T07:30:12;24.63;;;11.65;;
39860;SDS011;25529;49.346;20.886;2023-06-26T07:32:38;23.63;;;10.18;;
39860;SDS011;25529;49.346;20.886;2023-06-26T07:35:05;23.33;;;9.77;;
39860;SDS011;25529;49.346;20.886;2023-06-26T07:37:30;24.48;;;9.95;;
39860;SDS011;25529;49.346;20.886;2023-06-26T07:39:57;23.23;;;9.65;;
39860;SDS011;25529;49.346;20.886;2023-06-26T07:42:22;21.08;;;8.75;;
39860;SDS011;25529;49.346;20.886;2023-06-26T07:44:47;21.25;;;9.00;;
39860;SDS011;25529;49.346;20.886;2023-06-26T07:47:13;21.40;;;8.68;;
39860;SDS011;25529;49.346;20.886;2023-06-26T07:49:39;22.02;;;8.70;;
39860;SDS011;25529;49.346;20.886;2023-06-26T07:52:04;20.80;;;8.77;;
39860;SDS011;25529;49.346;20.886;2023-06-26T07:54:30;22.55;;;9.57;;
39860;SDS011;25529;49.346;20.886;2023-06-26T07:57:01;22.13;;;9.77;;
39860;SDS011;25529;49.346;20.886;2023-06-26T07:59:27;69.97;;;54.92;;
39860;SDS011;25529;49.346;20.886;2023-06-26T08:01:53;56.60;;;42.80;;
39860;SDS011;25529;49.346;20.886;2023-06-26T08:04:19;43.55;;;30.55;;
39860;SDS011;25529;49.346;20.886;2023-06-26T08:06:45;35.42;;;21.80;;
39860;SDS011;25529;49.346;20.886;2023-06-26T08:09:11;35.33;;;20.75;;
39860;SDS011;25529;49.346;20.886;2023-06-26T08:11:37;36.45;;;22.33;;
39860;SDS011;25529;49.346;20.886;2023-06-26T08:14:03;30.38;;;18.17;;
39860;SDS011;25529;49.346;20.886;2023-06-26T08:16:28;27.50;;;14.60;;
39860;SDS011;25529;49.346;20.886;2023-06-26T08:18:53;25.65;;;13.23;;
39860;SDS011;25529;49.346;20.886;2023-06-26T08:21:19;25.08;;;12.60;;
39860;SDS011;25529;49.346;20.886;2023-06-26T08:23:55;23.45;;;10.23;;
39860;SDS011;25529;49.346;20.886;2023-06-26T08:26:20;23.70;;;10.88;;
39860;SDS011;25529;49.346;20.886;2023-06-26T08:28:45;27.55;;;15.45;;
39860;SDS011;25529;49.346;20.886;2023-06-26T08:31:11;27.95;;;15.63;;
39860;SDS011;25529;49.346;20.886;2023-06-26T08:33:36;27.30;;;14.45;;
39860;SDS011;25529;49.346;20.886;2023-06-26T08:36:02;24.48;;;11.15;;
39860;SDS011;25529;49.346;20.886;2023-06-26T08:38:27;22.75;;;10.00;;
39860;SDS011;25529;49.346;20.886;2023-06-26T08:40:53;24.30;;;9.93;;
39860;SDS011;25529;49.346;20.886;2023-06-26T08:43:18;21.55;;;9.07;;
39860;SDS011;25529;49.346;20.886;2023-06-26T08:45:44;21.88;;;8.50;;
39860;SDS011;25529;49.346;20.886;2023-06-26T08:48:11;20.13;;;7.70;;
39860;SDS011;25529;49.346;20.886;2023-06-26T08:50:39;19.30;;;7.55;;
39860;SDS011;25529;49.346;20.886;2023-06-26T08:55:33;19.45;;;7.65;;
39860;SDS011;25529;49.346;20.886;2023-06-26T08:58:01;20.40;;;7.97;;
39860;SDS011;25529;49.346;20.886;2023-06-26T09:00:26;18.60;;;7.53;;
39860;SDS011;25529;49.346;20.886;2023-06-26T09:02:52;20.65;;;7.82;;
39860;SDS011;25529;49.346;20.886;2023-06-26T09:05:17;19.55;;;8.20;;
39860;SDS011;25529;49.346;20.886;2023-06-26T09:07:44;19.65;;;8.35;;
39860;SDS011;25529;49.346;20.886;2023-06-26T09:10:09;23.55;;;10.48;;
39860;SDS011;25529;49.346;20.886;2023-06-26T09:12:36;23.42;;;9.65;;
39860;SDS011;25529;49.346;20.886;2023-06-26T09:15:02;34.50;;;17.52;;
39860;SDS011;25529;49.346;20.886;2023-06-26T09:17:32;74.60;;;42.90;;
39860;SDS011;25529;49.346;20.886;2023-06-26T09:19:58;66.75;;;40.38;;
39860;SDS011;25529;49.346;20.886;2023-06-26T09:22:23;87.63;;;55.47;;
39860;SDS011;25529;49.346;20.886;2023-06-26T09:24:48;60.58;;;37.38;;
39860;SDS011;25529;49.346;20.886;2023-06-26T09:27:15;35.55;;;19.05;;
39860;SDS011;25529;49.346;20.886;2023-06-26T09:29:40;25.65;;;11.35;;
39860;SDS011;25529;49.346;20.886;2023-06-26T09:32:07;24.90;;;11.43;;
39860;SDS011;25529;49.346;20.886;2023-06-26T09:34:33;23.65;;;10.23;;
39860;SDS011;25529;49.346;20.886;2023-06-26T09:36:58;23.48;;;8.80;;
39860;SDS011;25529;49.346;20.886;2023-06-26T09:39:24;21.48;;;9.18;;
39860;SDS011;25529;49.346;20.886;2023-06-26T09:41:49;19.90;;;7.80;;
39860;SDS011;25529;49.346;20.886;2023-06-26T09:44:15;21.35;;;8.18;;
39860;SDS011;25529;49.346;20.886;2023-06-26T09:46:40;20.73;;;7.95;;
39860;SDS011;25529;49.346;20.886;2023-06-26T09:49:07;31.95;;;15.60;;
39860;SDS011;25529;49.346;20.886;2023-06-26T09:51:33;24.42;;;11.45;;
39860;SDS011;25529;49.346;20.886;2023-06-26T09:53:58;22.60;;;10.30;;
39860;SDS011;25529;49.346;20.886;2023-06-26T09:56:44;20.88;;;8.52;;
39860;SDS011;25529;49.346;20.886;2023-06-26T10:02:12;21.83;;;8.68;;
39860;SDS011;25529;49.346;20.886;2023-06-26T10:04:38;22.40;;;10.52;;
39860;SDS011;25529;49.346;20.886;2023-06-26T10:07:08;25.63;;;12.68;;
39860;SDS011;25529;49.346;20.886;2023-06-26T10:16:13;29.73;;;15.38;;
39860;SDS011;25529;49.346;20.886;2023-06-26T10:18:48;25.92;;;10.88;;
39860;SDS011;25529;49.346;20.886;2023-06-26T10:21:18;21.83;;;9.07;;
39860;SDS011;25529;49.346;20.886;2023-06-26T10:23:44;21.77;;;8.63;;
39860;SDS011;25529;49.346;20.886;2023-06-26T10:26:15;20.40;;;8.15;;
39860;SDS011;25529;49.346;20.886;2023-06-26T10:28:44;19.90;;;7.97;;
39860;SDS011;25529;49.346;20.886;2023-06-26T10:31:15;18.90;;;7.28;;
39860;SDS011;25529;49.346;20.886;2023-06-26T10:33:41;18.63;;;7.35;;
39860;SDS011;25529;49.346;20.886;2023-06-26T10:36:20;19.77;;;7.60;;
39860;SDS011;25529;49.346;20.886;2023-06-26T10:38:54;25.43;;;11.40;;
39860;SDS011;25529;49.346;20.886;2023-06-26T10:41:20;22.48;;;10.18;;
39860;SDS011;25529;49.346;20.886;2023-06-26T10:43:49;21.23;;;9.43;;
39860;SDS011;25529;49.346;20.886;2023-06-26T10:49:36;19.90;;;8.30;;
39860;SDS011;25529;49.346;20.886;2023-06-26T10:55:04;20.15;;;8.15;;
39860;SDS011;25529;49.346;20.886;2023-06-26T10:57:29;19.77;;;7.68;;
39860;SDS011;25529;49.346;20.886;2023-06-26T11:00:10;20.50;;;7.55;;
39860;SDS011;25529;49.346;20.886;2023-06-26T11:02:49;19.58;;;7.15;;
39860;SDS011;25529;49.346;20.886;2023-06-26T11:08:07;18.83;;;6.90;;
39860;SDS011;25529;49.346;20.886;2023-06-26T11:10:50;20.95;;;8.20;;
39860;SDS011;25529;49.346;20.886;2023-06-26T11:13:16;20.67;;;8.15;;
39860;SDS011;25529;49.346;20.886;2023-06-26T11:15:42;19.92;;;7.68;;
39860;SDS011;25529;49.346;20.886;2023-06-26T11:18:08;21.02;;;7.85;;
39860;SDS011;25529;49.346;20.886;2023-06-26T11:20:34;19.30;;;7.70;;
39860;SDS011;25529;49.346;20.886;2023-06-26T11:22:59;26.63;;;11.52;;
39860;SDS011;25529;49.346;20.886;2023-06-26T11:25:25;25.77;;;12.57;;
39860;SDS011;25529;49.346;20.886;2023-06-26T11:27:56;22.08;;;9.40;;
39860;SDS011;25529;49.346;20.886;2023-06-26T11:30:25;22.23;;;8.73;;
39860;SDS011;25529;49.346;20.886;2023-06-26T11:33:06;20.88;;;8.30;;
39860;SDS011;25529;49.346;20.886;2023-06-26T11:35:32;20.87;;;8.10;;
39860;SDS011;25529;49.346;20.886;2023-06-26T11:37:58;34.80;;;18.27;;
39860;SDS011;25529;49.346;20.886;2023-06-26T11:52:44;20.17;;;8.15;;
39860;SDS011;25529;49.346;20.886;2023-06-26T11:55:22;18.42;;;7.43;;
39860;SDS011;25529;49.346;20.886;2023-06-26T11:57:59;18.88;;;7.55;;
39860;SDS011;25529;49.346;20.886;2023-06-26T12:00:47;19.63;;;7.57;;
39860;SDS011;25529;49.346;20.886;2023-06-26T12:03:13;19.73;;;7.43;;
39860;SDS011;25529;49.346;20.886;2023-06-26T12:05:38;19.85;;;7.95;;
39860;SDS011;25529;49.346;20.886;2023-06-26T12:08:04;19.83;;;7.50;;
39860;SDS011;25529;49.346;20.886;2023-06-26T12:10:35;29.55;;;15.43;;
39860;SDS011;25529;49.346;20.886;2023-06-26T12:13:01;23.80;;;11.00;;
39860;SDS011;25529;49.346;20.886;2023-06-26T12:15:29;22.85;;;10.73;;
39860;SDS011;25529;49.346;20.886;2023-06-26T12:18:08;21.60;;;8.80;;
39860;SDS011;25529;49.346;20.886;2023-06-26T12:20:39;19.42;;;7.95;;
39860;SDS011;25529;49.346;20.886;2023-06-26T12:23:13;19.15;;;7.38;;
39860;SDS011;25529;49.346;20.886;2023-06-26T12:25:39;19.15;;;7.32;;
39860;SDS011;25529;49.346;20.886;2023-06-26T12:28:14;17.33;;;6.50;;
39860;SDS011;25529;49.346;20.886;2023-06-26T12:30:44;19.45;;;7.07;;
39860;SDS011;25529;49.346;20.886;2023-06-26T12:39:47;19.20;;;7.07;;
39860;SDS011;25529;49.346;20.886;2023-06-26T12:42:13;24.30;;;7.90;;
39860;SDS011;25529;49.346;20.886;2023-06-26T12:44:39;20.20;;;7.13;;
39860;SDS011;25529;49.346;20.886;2023-06-26T12:47:04;25.25;;;10.50;;
39860;SDS011;25529;49.346;20.886;2023-06-26T12:49:33;39.63;;;22.65;;
39860;SDS011;25529;49.346;20.886;2023-06-26T12:52:03;28.35;;;13.50;;
39860;SDS011;25529;49.346;20.886;2023-06-26T12:54:40;22.35;;;9.10;;
39860;SDS011;25529;49.346;20.886;2023-06-26T12:57:09;20.98;;;7.28;;
39860;SDS011;25529;49.346;20.886;2023-06-26T12:59:38;17.95;;;6.78;;
39860;SDS011;25529;49.346;20.886;2023-06-26T13:02:03;21.50;;;6.90;;
39860;SDS011;25529;49.346;20.886;2023-06-26T13:04:42;19.25;;;7.07;;
39860;SDS011;25529;49.346;20.886;2023-06-26T13:07:16;18.55;;;6.43;;
39860;SDS011;25529;49.346;20.886;2023-06-26T13:09:47;17.80;;;6.63;;
39860;SDS011;25529;49.346;20.886;2023-06-26T13:12:22;18.83;;;6.55;;
39860;SDS011;25529;49.346;20.886;2023-06-26T13:14:47;26.33;;;7.50;;
39860;SDS011;25529;49.346;20.886;2023-06-26T13:17:13;20.73;;;7.72;;
39860;SDS011;25529;49.346;20.886;2023-06-26T13:19:38;18.98;;;7.18;;
39860;SDS011;25529;49.346;20.886;2023-06-26T13:22:04;25.85;;;9.63;;
39860;SDS011;25529;49.346;20.886;2023-06-26T13:24:29;22.27;;;8.77;;
39860;SDS011;25529;49.346;20.886;2023-06-26T13:26:54;21.58;;;7.78;;
39860;SDS011;25529;49.346;20.886;2023-06-26T13:29:19;19.92;;;7.55;;
39860;SDS011;25529;49.346;20.886;2023-06-26T13:31:45;22.98;;;7.47;;
39860;SDS011;25529;49.346;20.886;2023-06-26T13:34:19;21.05;;;7.95;;
39860;SDS011;25529;49.346;20.886;2023-06-26T13:37:02;22.25;;;8.25;;
39860;SDS011;25529;49.346;20.886;2023-06-26T13:39:28;23.25;;;9.43;;
39860;SDS011;25529;49.346;20.886;2023-06-26T13:41:53;22.38;;;8.45;;
39860;SDS011;25529;49.346;20.886;2023-06-26T13:44:19;21.48;;;8.20;;
39860;SDS011;25529;49.346;20.886;2023-06-26T13:46:44;21.63;;;7.72;;
39860;SDS011;25529;49.346;20.886;2023-06-26T13:49:09;20.88;;;7.32;;
39860;SDS011;25529;49.346;20.886;2023-06-26T13:51:34;20.05;;;7.28;;
39860;SDS011;25529;49.346;20.886;2023-06-26T13:54:00;19.00;;;6.95;;
39860;SDS011;25529;49.346;20.886;2023-06-26T13:56:27;19.65;;;6.97;;
39860;SDS011;25529;49.346;20.886;2023-06-26T13:58:55;20.48;;;6.60;;
39860;SDS011;25529;49.346;20.886;2023-06-26T14:01:20;17.98;;;6.40;;
39860;SDS011;25529;49.346;20.886;2023-06-26T14:03:46;18.60;;;6.78;;
39860;SDS011;25529;49.346;20.886;2023-06-26T14:06:11;20.15;;;6.90;;
39860;SDS011;25529;49.346;20.886;2023-06-26T14:08:36;17.90;;;6.70;;
39860;SDS011;25529;49.346;20.886;2023-06-26T14:11:02;18.63;;;6.80;;
39860;SDS011;25529;49.346;20.886;2023-06-26T14:13:27;19.10;;;6.47;;
39860;SDS011;25529;49.346;20.886;2023-06-26T14:15:52;18.50;;;6.80;;
39860;SDS011;25529;49.346;20.886;2023-06-26T14:18:18;18.80;;;6.82;;
39860;SDS011;25529;49.346;20.886;2023-06-26T14:20:45;18.40;;;6.82;;
39860;SDS011;25529;49.346;20.886;2023-06-26T14:23:11;18.60;;;6.50;;
39860;SDS011;25529;49.346;20.886;2023-06-26T14:25:38;20.00;;;7.03;;
39860;SDS011;25529;49.346;20.886;2023-06-26T14:28:04;17.30;;;6.57;;
39860;SDS011;25529;49.346;20.886;2023-06-26T14:30:29;22.20;;;7.15;;
39860;SDS011;25529;49.346;20.886;2023-06-26T14:32:54;19.98;;;7.13;;
39860;SDS011;25529;49.346;20.886;2023-06-26T14:35:20;20.98;;;7.13;;
39860;SDS011;25529;49.346;20.886;2023-06-26T14:37:45;19.25;;;7.00;;
39860;SDS011;25529;49.346;20.886;2023-06-26T14:40:14;17.70;;;6.30;;
39860;SDS011;25529;49.346;20.886;2023-06-26T14:42:39;18.48;;;6.38;;
39860;SDS011;25529;49.346;20.886;2023-06-26T14:45:04;19.48;;;6.70;;
39860;SDS011;25529;49.346;20.886;2023-06-26T14:47:30;18.10;;;6.32;;
39860;SDS011;25529;49.346;20.886;2023-06-26T14:49:55;18.63;;;6.57;;
39860;SDS011;25529;49.346;20.886;2023-06-26T14:52:20;20.13;;;7.28;;
39860;SDS011;25529;49.346;20.886;2023-06-26T14:54:46;19.90;;;6.72;;
39860;SDS011;25529;49.346;20.886;2023-06-26T14:57:11;19.45;;;6.43;;
39860;SDS011;25529;49.346;20.886;2023-06-26T14:59:37;18.30;;;6.32;;
39860;SDS011;25529;49.346;20.886;2023-06-26T15:02:02;18.08;;;6.70;;
39860;SDS011;25529;49.346;20.886;2023-06-26T15:04:27;17.85;;;6.32;;
39860;SDS011;25529;49.346;20.886;2023-06-26T15:06:53;17.80;;;6.65;;
39860;SDS011;25529;49.346;20.886;2023-06-26T15:09:20;19.08;;;7.20;;
39860;SDS011;25529;49.346;20.886;2023-06-26T15:11:45;18.60;;;6.80;;
39860;SDS011;25529;49.346;20.886;2023-06-26T15:14:11;18.52;;;6.30;;
39860;SDS011;25529;49.346;20.886;2023-06-26T15:16:37;17.52;;;6.43;;
39860;SDS011;25529;49.346;20.886;2023-06-26T15:19:02;16.70;;;6.32;;
39860;SDS011;25529;49.346;20.886;2023-06-26T15:21:27;18.55;;;6.80;;
39860;SDS011;25529;49.346;20.886;2023-06-26T15:23:53;20.70;;;6.70;;
39860;SDS011;25529;49.346;20.886;2023-06-26T15:26:18;18.27;;;6.70;;
39860;SDS011;25529;49.346;20.886;2023-06-26T15:28:43;19.10;;;6.50;;
39860;SDS011;25529;49.346;20.886;2023-06-26T15:31:09;17.52;;;6.60;;
39860;SDS011;25529;49.346;20.886;2023-06-26T15:33:34;19.20;;;6.90;;
39860;SDS011;25529;49.346;20.886;2023-06-26T15:36:00;18.90;;;7.25;;
39860;SDS011;25529;49.346;20.886;2023-06-26T15:38:28;17.10;;;6.40;;
39860;SDS011;25529;49.346;20.886;2023-06-26T15:40:53;18.13;;;6.53;;
39860;SDS011;25529;49.346;20.886;2023-06-26T15:43:19;19.23;;;6.93;;
39860;SDS011;25529;49.346;20.886;2023-06-26T15:45:45;18.65;;;7.15;;
39860;SDS011;25529;49.346;20.886;2023-06-26T15:48:10;19.35;;;6.70;;
39860;SDS011;25529;49.346;20.886;2023-06-26T15:50:35;20.10;;;7.07;;
39860;SDS011;25529;49.346;20.886;2023-06-26T15:53:02;18.33;;;6.65;;
39860;SDS011;25529;49.346;20.886;2023-06-26T15:55:27;19.75;;;6.72;;
39860;SDS011;25529;49.346;20.886;2023-06-26T15:57:53;17.73;;;6.65;;
39860;SDS011;25529;49.346;20.886;2023-06-26T16:00:18;19.33;;;6.78;;
39860;SDS011;25529;49.346;20.886;2023-06-26T16:02:44;17.92;;;6.15;;